createdAt,value
2023-01-13T05:04:22.620Z,100.00
2023-01-13T05:08:34.231Z,100.00
2023-01-13T05:13:05.088Z,100.00
2023-01-13T05:17:22.518Z,100.00
2023-01-13T05:21:52.832Z,100.00
2023-01-13T05:26:04.914Z,100.00
2023-01-13T05:30:17.482Z,100.00
2023-01-13T05:34:28.985Z,100.00
2023-01-13T05:38:40.531Z,100.00
2023-01-13T05:43:20.580Z,100.00
2023-01-13T05:47:32.363Z,100.00
2023-01-13T05:51:43.865Z,100.00
2023-01-13T05:55:55.378Z,100.00
2023-01-13T06:00:07.627Z,100.00
2023-01-13T06:04:25.227Z,100.00
2023-01-13T06:08:39.428Z,100.00
2023-01-13T06:12:51.759Z,100.00
2023-01-13T06:17:03.283Z,100.00
2023-01-13T06:21:14.835Z,100.00
2023-01-13T06:25:30.331Z,100.00
2023-01-13T06:29:42.072Z,100.00
2023-01-13T06:33:59.383Z,100.00
2023-01-13T06:38:15.804Z,100.00
2023-01-13T06:42:48.314Z,100.00
2023-01-13T06:47:00.028Z,100.00
2023-01-13T06:51:11.544Z,100.00
2023-01-13T06:55:23.060Z,100.00
2023-01-13T06:59:35.172Z,100.00
2023-01-13T07:03:46.664Z,100.00
2023-01-13T07:07:58.186Z,100.00
2023-01-13T07:12:09.687Z,100.00
2023-01-13T07:16:21.228Z,100.00
2023-01-13T07:20:33.828Z,100.00
2023-01-13T07:24:45.343Z,100.00
2023-01-13T07:28:57.827Z,100.00
2023-01-13T07:33:09.339Z,100.00
2023-01-13T07:37:20.829Z,100.00
2023-01-13T07:41:50.935Z,100.00
2023-01-13T07:46:05.102Z,100.00
2023-01-13T07:50:16.784Z,100.00
2023-01-13T07:54:40.088Z,100.00
2023-01-13T07:58:53.150Z,100.00
2023-01-13T08:03:04.743Z,100.00
2023-01-13T08:07:16.350Z,100.00
2023-01-13T08:11:27.847Z,100.00
2023-01-13T08:15:39.383Z,100.00
2023-01-13T08:19:50.891Z,100.00
2023-01-13T08:24:02.405Z,100.00
2023-01-13T08:28:15.857Z,100.00
2023-01-13T08:32:27.319Z,100.00
2023-01-13T08:36:38.803Z,100.00
2023-01-13T08:40:50.340Z,100.00
2023-01-13T08:45:02.098Z,100.00
2023-01-13T08:49:13.583Z,100.00
2023-01-13T08:53:25.081Z,100.00
2023-01-13T08:57:36.582Z,100.00
2023-01-13T09:01:48.263Z,100.00
2023-01-13T09:05:59.877Z,100.00
2023-01-13T09:10:11.403Z,100.00
2023-01-13T09:14:24.831Z,100.00
2023-01-13T09:18:36.347Z,100.00
2023-01-13T09:22:47.869Z,100.00
2023-01-13T09:26:59.420Z,100.00
2023-01-13T09:31:10.993Z,100.00
2023-01-13T09:35:22.566Z,97.96
2023-01-13T09:39:35.704Z,98.90
2023-01-13T09:43:56.113Z,97.52
2023-01-13T09:48:17.542Z,97.46
2023-01-13T09:52:29.233Z,97.29
2023-01-13T09:56:40.800Z,96.12
2023-01-13T10:01:03.105Z,95.94
2023-01-13T10:05:35.026Z,93.97
2023-01-13T10:09:52.434Z,92.63
2023-01-13T10:14:22.337Z,92.26
2023-01-13T10:18:44.857Z,92.46
2023-01-13T10:23:15.035Z,90.96
2023-01-13T10:27:34.926Z,89.50
2023-01-13T10:31:46.471Z,89.55
2023-01-13T10:36:13.811Z,88.05
2023-01-13T10:40:25.702Z,89.40
2023-01-13T10:44:47.992Z,89.10
2023-01-13T10:49:02.194Z,89.38
2023-01-13T10:53:25.395Z,90.77
2023-01-13T10:57:36.988Z,91.26
2023-01-13T11:02:25.371Z,89.37
2023-01-13T11:06:41.451Z,87.87
2023-01-13T11:10:55.972Z,86.09
2023-01-13T11:15:13.847Z,87.93
2023-01-13T11:19:28.947Z,84.22
2023-01-13T11:23:48.718Z,84.03
2023-01-13T11:28:21.317Z,81.16
2023-01-13T11:32:40.538Z,80.72
2023-01-13T11:36:55.240Z,80.25
2023-01-13T11:41:17.687Z,78.26
2023-01-13T11:45:41.303Z,78.67
2023-01-13T11:49:52.877Z,78.16
2023-01-13T11:54:22.435Z,79.09
2023-01-13T11:58:55.349Z,77.28
2023-01-13T12:03:19.084Z,78.54
2023-01-13T12:07:48.922Z,82.15
2023-01-13T12:12:22.764Z,81.56
2023-01-13T12:16:37.529Z,82.42
2023-01-13T12:21:12.341Z,82.30
2023-01-13T12:25:40.358Z,80.92
2023-01-13T12:29:56.946Z,80.43
2023-01-13T12:34:47.475Z,78.85
2023-01-13T12:39:14.177Z,78.02
2023-01-13T12:43:44.386Z,75.80
2023-01-13T12:47:57.205Z,76.55
2023-01-13T12:52:13.967Z,78.02
2023-01-13T12:56:43.756Z,80.84
2023-01-13T13:01:01.328Z,84.24
2023-01-13T13:05:25.101Z,83.53
2023-01-13T13:09:44.071Z,84.28
2023-01-13T13:13:55.866Z,83.44
2023-01-13T13:18:20.803Z,80.49
2023-01-13T13:22:44.490Z,80.43
2023-01-13T13:26:56.133Z,77.86
2023-01-13T13:31:13.073Z,77.99
2023-01-13T13:35:38.844Z,76.62
2023-01-13T13:40:09.048Z,75.57
2023-01-13T13:44:44.742Z,75.33
2023-01-13T13:48:56.317Z,73.46
2023-01-13T13:53:11.311Z,72.76
2023-01-13T13:57:33.642Z,73.31
2023-01-13T14:01:53.083Z,73.58
2023-01-13T14:06:07.315Z,73.19
2023-01-13T14:10:24.586Z,73.03
2023-01-13T14:14:36.107Z,73.07
2023-01-13T14:18:48.349Z,73.38
2023-01-13T14:23:01.626Z,73.19
2023-01-13T14:27:18.852Z,72.94
2023-01-13T14:31:31.581Z,72.92
2023-01-13T14:36:05.313Z,73.79
2023-01-13T14:40:36.190Z,72.76
2023-01-13T14:44:50.648Z,74.39
2023-01-13T14:49:02.287Z,74.67
2023-01-13T14:53:47.141Z,74.08
2023-01-13T14:58:20.454Z,74.33
2023-01-13T15:02:34.628Z,73.54
2023-01-13T15:06:47.468Z,74.19
2023-01-13T15:11:01.548Z,74.83
2023-01-13T15:15:32.763Z,75.80
2023-01-13T15:19:44.638Z,74.76
2023-01-13T15:23:56.165Z,74.87
2023-01-13T15:28:23.341Z,75.99
2023-01-13T15:32:35.862Z,75.12
2023-01-13T15:36:47.461Z,77.56
2023-01-13T15:40:59.194Z,80.65
2023-01-13T15:45:32.328Z,83.95
2023-01-13T15:49:44.934Z,84.57
2023-01-13T15:53:56.610Z,84.56
2023-01-13T15:58:12.242Z,87.54
2023-01-13T16:02:24.453Z,87.42
2023-01-13T16:06:37.099Z,85.06
2023-01-13T16:10:52.637Z,85.29
2023-01-13T16:15:07.473Z,86.09
2023-01-13T16:19:19.035Z,85.68
2023-01-13T16:23:30.738Z,85.68
2023-01-13T16:27:42.257Z,86.36
2023-01-13T16:31:53.876Z,85.98
2023-01-13T16:36:13.224Z,84.52
2023-01-13T16:41:06.047Z,84.83
2023-01-13T16:45:18.875Z,84.49
2023-01-13T16:49:30.411Z,83.81
2023-01-13T16:53:42.268Z,83.22
2023-01-13T16:57:54.812Z,83.28
2023-01-13T17:02:12.915Z,83.29
2023-01-13T17:06:35.523Z,83.27
2023-01-13T17:10:47.612Z,82.43
2023-01-13T17:15:04.038Z,81.52
2023-01-13T17:19:19.584Z,82.03
2023-01-13T17:23:31.546Z,81.96
2023-01-13T17:27:43.143Z,82.96
2023-01-13T17:32:03.581Z,83.84
2023-01-13T17:36:29.604Z,84.98
2023-01-13T17:40:41.182Z,83.97
2023-01-13T17:44:52.903Z,86.12
2023-01-13T17:49:04.480Z,86.37
2023-01-13T17:53:16.128Z,88.41
2023-01-13T17:57:27.840Z,87.92
2023-01-13T18:01:40.155Z,87.69
2023-01-13T18:05:51.686Z,87.69
2023-01-13T18:10:03.323Z,86.51
2023-01-13T18:14:15.250Z,86.62
2023-01-13T18:18:26.834Z,86.00
2023-01-13T18:22:57.115Z,85.77
2023-01-13T18:27:23.207Z,85.94
2023-01-13T18:31:34.744Z,85.75
2023-01-13T18:35:46.249Z,85.44
2023-01-13T18:39:58.391Z,86.39
2023-01-13T18:44:09.941Z,86.93
2023-01-13T18:48:21.473Z,87.47
2023-01-13T18:52:32.990Z,88.15
2023-01-13T18:56:44.546Z,88.44
2023-01-13T19:01:02.944Z,88.90
2023-01-13T19:05:14.792Z,88.70
2023-01-13T19:09:28.659Z,90.12
2023-01-13T19:13:40.169Z,91.28
2023-01-13T19:17:51.705Z,92.04
2023-01-13T19:22:03.190Z,91.98
2023-01-13T19:26:14.776Z,92.45
2023-01-13T19:30:26.439Z,92.42
2023-01-13T19:34:37.998Z,92.34
2023-01-13T19:38:49.493Z,92.42
2023-01-13T19:43:19.684Z,91.70
2023-01-13T19:47:31.646Z,91.74
2023-01-13T19:51:43.208Z,90.48
2023-01-13T19:55:54.739Z,90.53
2023-01-13T20:00:08.217Z,90.89
2023-01-13T20:04:38.379Z,91.24
2023-01-13T20:08:50.021Z,90.63
2023-01-13T20:13:01.729Z,90.89
2023-01-13T20:17:15.652Z,91.53
2023-01-13T20:21:27.185Z,92.22
2023-01-13T20:25:42.130Z,92.45
2023-01-13T20:29:53.671Z,92.41
2023-01-13T20:34:05.856Z,92.66
2023-01-13T20:38:17.665Z,92.80
2023-01-13T20:42:29.207Z,93.53
2023-01-13T20:46:42.400Z,94.29
2023-01-13T20:50:55.125Z,93.91
2023-01-13T20:55:07.632Z,93.96
2023-01-13T20:59:19.166Z,93.89
2023-01-13T21:03:30.781Z,94.08
2023-01-13T21:07:42.431Z,93.71
2023-01-13T21:12:12.457Z,94.40
2023-01-13T21:16:24.052Z,94.59
2023-01-13T21:20:37.555Z,94.61
2023-01-13T21:24:49.016Z,94.32
2023-01-13T21:29:02.259Z,94.39
2023-01-13T21:33:14.192Z,94.06
2023-01-13T21:37:25.700Z,93.73
2023-01-13T21:41:55.902Z,93.81
2023-01-13T21:46:33.588Z,94.43
2023-01-13T21:50:45.335Z,94.94
2023-01-13T21:55:15.339Z,94.49
2023-01-13T21:59:26.902Z,94.73
2023-01-13T22:03:57.543Z,95.24
2023-01-13T22:08:12.701Z,95.01
2023-01-13T22:12:24.836Z,94.67
2023-01-13T22:16:41.761Z,94.54
2023-01-13T22:20:53.343Z,94.12
2023-01-13T22:25:07.992Z,94.09
2023-01-13T22:29:19.517Z,94.05
